sensor_id;sensor_type;location;lat;lon;timestamp;P1;durP1;ratioP1;P2;durP2;ratioP2
17614;SDS011;8926;49.720;6.576;2022-08-03T00:02:22;0.80;;;0.80;;
17614;SDS011;8926;49.720;6.576;2022-08-03T00:04:47;1.00;;;1.00;;
17614;SDS011;8926;49.720;6.576;2022-08-03T00:07:12;0.80;;;0.80;;
17614;SDS011;8926;49.720;6.576;2022-08-03T00:09:38;0.83;;;0.83;;
17614;SDS011;8926;49.720;6.576;2022-08-03T00:12:03;0.77;;;0.77;;
17614;SDS011;8926;49.720;6.576;2022-08-03T00:14:29;0.70;;;0.70;;
17614;SDS011;8926;49.720;6.576;2022-08-03T00:16:54;0.60;;;0.60;;
17614;SDS011;8926;49.720;6.576;2022-08-03T00:19:20;0.80;;;0.80;;
17614;SDS011;8926;49.720;6.576;2022-08-03T00:21:45;0.50;;;0.50;;
17614;SDS011;8926;49.720;6.576;2022-08-03T00:24:10;0.60;;;0.60;;
17614;SDS011;8926;49.720;6.576;2022-08-03T00:26:36;0.70;;;0.70;;
17614;SDS011;8926;49.720;6.576;2022-08-03T00:29:01;0.87;;;0.63;;
17614;SDS011;8926;49.720;6.576;2022-08-03T00:31:27;0.70;;;0.70;;
17614;SDS011;8926;49.720;6.576;2022-08-03T00:33:52;0.70;;;0.70;;
17614;SDS011;8926;49.720;6.576;2022-08-03T00:36:17;0.70;;;0.70;;
17614;SDS011;8926;49.720;6.576;2022-08-03T00:38:43;0.50;;;0.50;;
17614;SDS011;8926;49.720;6.576;2022-08-03T00:41:08;1.87;;;0.80;;
17614;SDS011;8926;49.720;6.576;2022-08-03T00:43:33;0.90;;;0.90;;
17614;SDS011;8926;49.720;6.576;2022-08-03T00:45:59;0.60;;;0.60;;
17614;SDS011;8926;49.720;6.576;2022-08-03T00:48:24;0.77;;;0.77;;
17614;SDS011;8926;49.720;6.576;2022-08-03T00:50:49;0.90;;;0.90;;
17614;SDS011;8926;49.720;6.576;2022-08-03T00:53:15;0.70;;;0.70;;
17614;SDS011;8926;49.720;6.576;2022-08-03T00:55:40;0.90;;;0.90;;
17614;SDS011;8926;49.720;6.576;2022-08-03T00:58:07;0.90;;;0.90;;
17614;SDS011;8926;49.720;6.576;2022-08-03T01:00:38;0.80;;;0.80;;
17614;SDS011;8926;49.720;6.576;2022-08-03T01:03:07;0.70;;;0.70;;
17614;SDS011;8926;49.720;6.576;2022-08-03T01:05:55;0.73;;;0.73;;
17614;SDS011;8926;49.720;6.576;2022-08-03T01:08:38;1.00;;;1.00;;
17614;SDS011;8926;49.720;6.576;2022-08-03T01:11:18;0.87;;;0.87;;
17614;SDS011;8926;49.720;6.576;2022-08-03T01:13:53;0.90;;;0.90;;
17614;SDS011;8926;49.720;6.576;2022-08-03T01:16:26;0.80;;;0.80;;
17614;SDS011;8926;49.720;6.576;2022-08-03T01:19:08;0.70;;;0.70;;
17614;SDS011;8926;49.720;6.576;2022-08-03T01:21:58;0.80;;;0.80;;
17614;SDS011;8926;49.720;6.576;2022-08-03T01:27:20;0.80;;;0.80;;
17614;SDS011;8926;49.720;6.576;2022-08-03T01:30:09;0.80;;;0.80;;
17614;SDS011;8926;49.720;6.576;2022-08-03T01:32:39;0.80;;;0.80;;
17614;SDS011;8926;49.720;6.576;2022-08-03T01:35:13;0.90;;;0.90;;
17614;SDS011;8926;49.720;6.576;2022-08-03T01:37:46;0.80;;;0.80;;
17614;SDS011;8926;49.720;6.576;2022-08-03T01:40:15;0.80;;;0.80;;
17614;SDS011;8926;49.720;6.576;2022-08-03T01:42:43;0.80;;;0.80;;
17614;SDS011;8926;49.720;6.576;2022-08-03T01:45:11;0.70;;;0.70;;
17614;SDS011;8926;49.720;6.576;2022-08-03T01:47:40;0.90;;;0.90;;
17614;SDS011;8926;49.720;6.576;2022-08-03T01:50:08;0.70;;;0.70;;
17614;SDS011;8926;49.720;6.576;2022-08-03T01:52:36;0.70;;;0.70;;
17614;SDS011;8926;49.720;6.576;2022-08-03T01:55:04;0.73;;;0.73;;
17614;SDS011;8926;49.720;6.576;2022-08-03T01:57:31;0.80;;;0.80;;
17614;SDS011;8926;49.720;6.576;2022-08-03T01:59:59;0.70;;;0.70;;
17614;SDS011;8926;49.720;6.576;2022-08-03T02:02:25;0.90;;;0.90;;
17614;SDS011;8926;49.720;6.576;2022-08-03T02:04:55;1.00;;;1.00;;
17614;SDS011;8926;49.720;6.576;2022-08-03T02:07:22;0.90;;;0.90;;
17614;SDS011;8926;49.720;6.576;2022-08-03T02:09:50;0.97;;;0.97;;
17614;SDS011;8926;49.720;6.576;2022-08-03T02:12:17;0.73;;;0.73;;
17614;SDS011;8926;49.720;6.576;2022-08-03T02:14:43;0.90;;;0.90;;
17614;SDS011;8926;49.720;6.576;2022-08-03T02:17:11;0.90;;;0.90;;
17614;SDS011;8926;49.720;6.576;2022-08-03T02:19:38;0.80;;;0.80;;
17614;SDS011;8926;49.720;6.576;2022-08-03T02:22:07;0.83;;;0.83;;
17614;SDS011;8926;49.720;6.576;2022-08-03T02:24:34;0.90;;;0.90;;
17614;SDS011;8926;49.720;6.576;2022-08-03T02:27:00;1.13;;;1.07;;
17614;SDS011;8926;49.720;6.576;2022-08-03T02:29:30;0.83;;;0.83;;
17614;SDS011;8926;49.720;6.576;2022-08-03T02:31:58;0.80;;;0.80;;
17614;SDS011;8926;49.720;6.576;2022-08-03T02:34:26;0.90;;;0.90;;
17614;SDS011;8926;49.720;6.576;2022-08-03T02:36:55;0.90;;;0.90;;
17614;SDS011;8926;49.720;6.576;2022-08-03T02:39:24;0.83;;;0.83;;
17614;SDS011;8926;49.720;6.576;2022-08-03T02:41:53;0.90;;;0.90;;
17614;SDS011;8926;49.720;6.576;2022-08-03T02:44:26;0.80;;;0.80;;
17614;SDS011;8926;49.720;6.576;2022-08-03T02:47:11;1.27;;;1.17;;
17614;SDS011;8926;49.720;6.576;2022-08-03T02:49:37;0.90;;;0.90;;
17614;SDS011;8926;49.720;6.576;2022-08-03T02:52:07;0.90;;;0.90;;
17614;SDS011;8926;49.720;6.576;2022-08-03T02:54:34;0.70;;;0.70;;
17614;SDS011;8926;49.720;6.576;2022-08-03T02:57:00;0.93;;;0.93;;
17614;SDS011;8926;49.720;6.576;2022-08-03T02:59:27;1.00;;;1.00;;
17614;SDS011;8926;49.720;6.576;2022-08-03T03:01:55;1.00;;;0.90;;
17614;SDS011;8926;49.720;6.576;2022-08-03T03:04:22;1.10;;;1.10;;
17614;SDS011;8926;49.720;6.576;2022-08-03T03:06:47;1.10;;;1.10;;
17614;SDS011;8926;49.720;6.576;2022-08-03T03:09:14;1.77;;;1.20;;
17614;SDS011;8926;49.720;6.576;2022-08-03T03:11:41;0.87;;;0.80;;
17614;SDS011;8926;49.720;6.576;2022-08-03T03:14:08;1.00;;;1.00;;
17614;SDS011;8926;49.720;6.576;2022-08-03T03:16:37;1.00;;;1.00;;
17614;SDS011;8926;49.720;6.576;2022-08-03T03:19:04;1.20;;;1.20;;
17614;SDS011;8926;49.720;6.576;2022-08-03T03:21:31;1.10;;;0.80;;
17614;SDS011;8926;49.720;6.576;2022-08-03T03:23:57;1.13;;;1.13;;
17614;SDS011;8926;49.720;6.576;2022-08-03T03:26:24;0.90;;;0.90;;
17614;SDS011;8926;49.720;6.576;2022-08-03T03:28:49;1.10;;;1.10;;
17614;SDS011;8926;49.720;6.576;2022-08-03T03:31:15;1.10;;;1.00;;
17614;SDS011;8926;49.720;6.576;2022-08-03T03:33:41;0.90;;;0.90;;
17614;SDS011;8926;49.720;6.576;2022-08-03T03:36:07;0.83;;;0.83;;
17614;SDS011;8926;49.720;6.576;2022-08-03T03:38:33;1.10;;;1.10;;
17614;SDS011;8926;49.720;6.576;2022-08-03T03:40:59;0.90;;;0.90;;
17614;SDS011;8926;49.720;6.576;2022-08-03T03:43:24;0.87;;;0.87;;
17614;SDS011;8926;49.720;6.576;2022-08-03T03:45:50;1.00;;;1.00;;
17614;SDS011;8926;49.720;6.576;2022-08-03T03:48:19;1.00;;;1.00;;
17614;SDS011;8926;49.720;6.576;2022-08-03T03:50:44;1.33;;;1.10;;
17614;SDS011;8926;49.720;6.576;2022-08-03T03:53:10;0.90;;;0.90;;
17614;SDS011;8926;49.720;6.576;2022-08-03T03:55:37;0.87;;;0.87;;
17614;SDS011;8926;49.720;6.576;2022-08-03T03:58:04;0.97;;;0.97;;
17614;SDS011;8926;49.720;6.576;2022-08-03T04:00:29;1.00;;;1.00;;
17614;SDS011;8926;49.720;6.576;2022-08-03T04:02:55;1.00;;;1.00;;
17614;SDS011;8926;49.720;6.576;2022-08-03T04:05:20;1.30;;;1.30;;
17614;SDS011;8926;49.720;6.576;2022-08-03T04:08:08;1.10;;;1.10;;
17614;SDS011;8926;49.720;6.576;2022-08-03T04:11:02;0.90;;;0.90;;
17614;SDS011;8926;49.720;6.576;2022-08-03T04:13:33;0.90;;;0.90;;
17614;SDS011;8926;49.720;6.576;2022-08-03T04:16:01;1.10;;;1.10;;
17614;SDS011;8926;49.720;6.576;2022-08-03T04:18:28;1.20;;;1.20;;
17614;SDS011;8926;49.720;6.576;2022-08-03T04:20:57;0.83;;;0.83;;
17614;SDS011;8926;49.720;6.576;2022-08-03T04:23:27;1.00;;;1.00;;
17614;SDS011;8926;49.720;6.576;2022-08-03T04:25:55;1.17;;;1.17;;
17614;SDS011;8926;49.720;6.576;2022-08-03T04:28:21;1.27;;;1.17;;
17614;SDS011;8926;49.720;6.576;2022-08-03T04:30:47;1.03;;;1.03;;
17614;SDS011;8926;49.720;6.576;2022-08-03T04:33:15;1.10;;;1.10;;
17614;SDS011;8926;49.720;6.576;2022-08-03T04:35:42;0.90;;;0.90;;
17614;SDS011;8926;49.720;6.576;2022-08-03T04:38:08;0.90;;;0.90;;
17614;SDS011;8926;49.720;6.576;2022-08-03T04:40:38;0.90;;;0.90;;
17614;SDS011;8926;49.720;6.576;2022-08-03T04:43:07;0.90;;;0.90;;
17614;SDS011;8926;49.720;6.576;2022-08-03T04:45:34;1.10;;;1.10;;
17614;SDS011;8926;49.720;6.576;2022-08-03T04:48:00;1.10;;;1.10;;
17614;SDS011;8926;49.720;6.576;2022-08-03T04:50:26;0.90;;;0.90;;
17614;SDS011;8926;49.720;6.576;2022-08-03T04:52:52;1.00;;;1.00;;
17614;SDS011;8926;49.720;6.576;2022-08-03T04:55:27;1.17;;;1.17;;
17614;SDS011;8926;49.720;6.576;2022-08-03T04:57:53;1.03;;;1.03;;
17614;SDS011;8926;49.720;6.576;2022-08-03T05:00:18;0.97;;;0.97;;
17614;SDS011;8926;49.720;6.576;2022-08-03T05:02:44;1.07;;;1.07;;
17614;SDS011;8926;49.720;6.576;2022-08-03T05:05:09;1.00;;;1.00;;
17614;SDS011;8926;49.720;6.576;2022-08-03T05:07:35;1.00;;;1.00;;
17614;SDS011;8926;49.720;6.576;2022-08-03T05:10:02;1.00;;;1.00;;
17614;SDS011;8926;49.720;6.576;2022-08-03T05:12:29;0.80;;;0.80;;
17614;SDS011;8926;49.720;6.576;2022-08-03T05:14:54;0.90;;;0.90;;
17614;SDS011;8926;49.720;6.576;2022-08-03T05:17:19;0.80;;;0.80;;
17614;SDS011;8926;49.720;6.576;2022-08-03T05:19:45;1.23;;;1.23;;
17614;SDS011;8926;49.720;6.576;2022-08-03T05:22:10;1.10;;;1.10;;
17614;SDS011;8926;49.720;6.576;2022-08-03T05:24:35;1.17;;;1.17;;
17614;SDS011;8926;49.720;6.576;2022-08-03T05:27:00;0.97;;;0.97;;
17614;SDS011;8926;49.720;6.576;2022-08-03T05:29:26;1.10;;;1.10;;
17614;SDS011;8926;49.720;6.576;2022-08-03T05:31:51;1.10;;;1.00;;
17614;SDS011;8926;49.720;6.576;2022-08-03T05:34:16;2.00;;;1.33;;
17614;SDS011;8926;49.720;6.576;2022-08-03T05:36:42;1.63;;;1.30;;
17614;SDS011;8926;49.720;6.576;2022-08-03T05:39:07;1.50;;;1.40;;
17614;SDS011;8926;49.720;6.576;2022-08-03T05:41:32;0.93;;;0.93;;
17614;SDS011;8926;49.720;6.576;2022-08-03T05:43:57;1.10;;;1.10;;
17614;SDS011;8926;49.720;6.576;2022-08-03T05:46:23;1.03;;;1.03;;
17614;SDS011;8926;49.720;6.576;2022-08-03T05:48:48;1.83;;;1.70;;
17614;SDS011;8926;49.720;6.576;2022-08-03T05:51:14;1.60;;;1.50;;
17614;SDS011;8926;49.720;6.576;2022-08-03T05:53:41;1.47;;;1.00;;
17614;SDS011;8926;49.720;6.576;2022-08-03T05:56:07;1.50;;;1.43;;
17614;SDS011;8926;49.720;6.576;2022-08-03T05:58:32;1.30;;;1.20;;
17614;SDS011;8926;49.720;6.576;2022-08-03T06:00:58;1.33;;;1.23;;
17614;SDS011;8926;49.720;6.576;2022-08-03T06:03:23;1.30;;;1.20;;
17614;SDS011;8926;49.720;6.576;2022-08-03T06:05:48;1.83;;;1.37;;
17614;SDS011;8926;49.720;6.576;2022-08-03T06:08:13;1.33;;;1.33;;
17614;SDS011;8926;49.720;6.576;2022-08-03T06:10:39;1.27;;;1.27;;
17614;SDS011;8926;49.720;6.576;2022-08-03T06:13:04;1.60;;;1.50;;
17614;SDS011;8926;49.720;6.576;2022-08-03T06:15:29;2.20;;;1.40;;
17614;SDS011;8926;49.720;6.576;2022-08-03T06:17:57;1.77;;;1.67;;
17614;SDS011;8926;49.720;6.576;2022-08-03T06:20:22;1.70;;;1.60;;
17614;SDS011;8926;49.720;6.576;2022-08-03T06:22:48;2.43;;;1.83;;
17614;SDS011;8926;49.720;6.576;2022-08-03T06:25:13;1.40;;;1.40;;
17614;SDS011;8926;49.720;6.576;2022-08-03T06:27:39;1.60;;;1.50;;
17614;SDS011;8926;49.720;6.576;2022-08-03T06:30:05;1.43;;;1.37;;
17614;SDS011;8926;49.720;6.576;2022-08-03T06:32:32;1.33;;;1.20;;
17614;SDS011;8926;49.720;6.576;2022-08-03T06:34:57;1.83;;;1.70;;
17614;SDS011;8926;49.720;6.576;2022-08-03T06:37:23;1.30;;;1.30;;
17614;SDS011;8926;49.720;6.576;2022-08-03T06:39:48;1.50;;;1.40;;
17614;SDS011;8926;49.720;6.576;2022-08-03T06:42:13;2.07;;;1.80;;
17614;SDS011;8926;49.720;6.576;2022-08-03T06:44:39;2.60;;;1.90;;
17614;SDS011;8926;49.720;6.576;2022-08-03T06:47:04;1.50;;;1.40;;
17614;SDS011;8926;49.720;6.576;2022-08-03T06:49:29;2.13;;;1.93;;
17614;SDS011;8926;49.720;6.576;2022-08-03T06:51:55;2.63;;;2.33;;
17614;SDS011;8926;49.720;6.576;2022-08-03T06:54:21;1.97;;;1.73;;
17614;SDS011;8926;49.720;6.576;2022-08-03T06:56:46;1.40;;;1.40;;
17614;SDS011;8926;49.720;6.576;2022-08-03T06:59:12;1.70;;;1.60;;
17614;SDS011;8926;49.720;6.576;2022-08-03T07:01:37;1.53;;;1.43;;
17614;SDS011;8926;49.720;6.576;2022-08-03T07:04:02;1.23;;;1.23;;
17614;SDS011;8926;49.720;6.576;2022-08-03T07:06:28;2.27;;;1.77;;
17614;SDS011;8926;49.720;6.576;2022-08-03T07:08:53;1.50;;;1.40;;
17614;SDS011;8926;49.720;6.576;2022-08-03T07:11:18;1.83;;;1.70;;
17614;SDS011;8926;49.720;6.576;2022-08-03T07:13:44;2.10;;;2.00;;
17614;SDS011;8926;49.720;6.576;2022-08-03T07:16:09;1.90;;;1.80;;
17614;SDS011;8926;49.720;6.576;2022-08-03T07:18:38;1.73;;;1.63;;
17614;SDS011;8926;49.720;6.576;2022-08-03T07:21:03;1.57;;;1.40;;
17614;SDS011;8926;49.720;6.576;2022-08-03T07:23:29;1.97;;;1.80;;
17614;SDS011;8926;49.720;6.576;2022-08-03T07:25:54;1.57;;;1.47;;
17614;SDS011;8926;49.720;6.576;2022-08-03T07:28:19;1.53;;;1.43;;
17614;SDS011;8926;49.720;6.576;2022-08-03T07:30:45;2.37;;;2.20;;
17614;SDS011;8926;49.720;6.576;2022-08-03T07:33:10;1.93;;;1.80;;
17614;SDS011;8926;49.720;6.576;2022-08-03T07:35:36;2.10;;;2.00;;
17614;SDS011;8926;49.720;6.576;2022-08-03T07:38:01;2.37;;;2.17;;
17614;SDS011;8926;49.720;6.576;2022-08-03T07:40:27;3.17;;;2.60;;
17614;SDS011;8926;49.720;6.576;2022-08-03T07:42:52;2.00;;;1.90;;
17614;SDS011;8926;49.720;6.576;2022-08-03T07:45:17;1.90;;;1.80;;
17614;SDS011;8926;49.720;6.576;2022-08-03T07:47:43;2.03;;;1.70;;
17614;SDS011;8926;49.720;6.576;2022-08-03T07:50:08;2.83;;;1.90;;
17614;SDS011;8926;49.720;6.576;2022-08-03T07:52:33;2.40;;;2.20;;
17614;SDS011;8926;49.720;6.576;2022-08-03T07:55:23;2.00;;;1.90;;
17614;SDS011;8926;49.720;6.576;2022-08-03T07:58:03;2.23;;;1.87;;
17614;SDS011;8926;49.720;6.576;2022-08-03T08:00:30;2.07;;;1.73;;
17614;SDS011;8926;49.720;6.576;2022-08-03T08:02:56;1.77;;;1.67;;
17614;SDS011;8926;49.720;6.576;2022-08-03T08:05:21;3.57;;;2.60;;
17614;SDS011;8926;49.720;6.576;2022-08-03T08:07:46;2.20;;;2.00;;
17614;SDS011;8926;49.720;6.576;2022-08-03T08:10:12;1.90;;;1.80;;
17614;SDS011;8926;49.720;6.576;2022-08-03T08:12:37;2.93;;;2.00;;
17614;SDS011;8926;49.720;6.576;2022-08-03T08:15:03;2.23;;;2.13;;
17614;SDS011;8926;49.720;6.576;2022-08-03T08:17:29;2.30;;;2.00;;
17614;SDS011;8926;49.720;6.576;2022-08-03T08:19:55;2.53;;;2.20;;
17614;SDS011;8926;49.720;6.576;2022-08-03T08:22:20;2.63;;;2.43;;
17614;SDS011;8926;49.720;6.576;2022-08-03T08:24:45;3.53;;;2.30;;
17614;SDS011;8926;49.720;6.576;2022-08-03T08:27:13;2.07;;;1.80;;
17614;SDS011;8926;49.720;6.576;2022-08-03T08:29:38;2.80;;;1.83;;
17614;SDS011;8926;49.720;6.576;2022-08-03T08:32:04;1.70;;;1.60;;
17614;SDS011;8926;49.720;6.576;2022-08-03T08:34:29;1.40;;;1.30;;
17614;SDS011;8926;49.720;6.576;2022-08-03T08:36:55;2.50;;;1.93;;
17614;SDS011;8926;49.720;6.576;2022-08-03T08:39:20;1.50;;;1.40;;
17614;SDS011;8926;49.720;6.576;2022-08-03T08:41:45;1.90;;;1.80;;
17614;SDS011;8926;49.720;6.576;2022-08-03T08:44:11;2.53;;;2.20;;
17614;SDS011;8926;49.720;6.576;2022-08-03T08:46:36;1.93;;;1.83;;
17614;SDS011;8926;49.720;6.576;2022-08-03T08:49:02;1.63;;;1.53;;
17614;SDS011;8926;49.720;6.576;2022-08-03T08:51:29;1.70;;;1.60;;
17614;SDS011;8926;49.720;6.576;2022-08-03T08:53:57;1.30;;;1.27;;
17614;SDS011;8926;49.720;6.576;2022-08-03T08:56:26;1.60;;;1.50;;
17614;SDS011;8926;49.720;6.576;2022-08-03T08:58:53;1.50;;;1.50;;
17614;SDS011;8926;49.720;6.576;2022-08-03T09:01:22;1.40;;;1.30;;
17614;SDS011;8926;49.720;6.576;2022-08-03T09:03:47;1.43;;;1.33;;
17614;SDS011;8926;49.720;6.576;2022-08-03T09:06:13;1.70;;;1.60;;
17614;SDS011;8926;49.720;6.576;2022-08-03T09:08:39;1.00;;;1.00;;
17614;SDS011;8926;49.720;6.576;2022-08-03T09:11:04;1.07;;;1.07;;
17614;SDS011;8926;49.720;6.576;2022-08-03T09:13:31;1.13;;;1.13;;
17614;SDS011;8926;49.720;6.576;2022-08-03T09:16:17;0.90;;;0.90;;
17614;SDS011;8926;49.720;6.576;2022-08-03T09:18:45;1.67;;;1.57;;
17614;SDS011;8926;49.720;6.576;2022-08-03T09:21:17;1.10;;;1.10;;
17614;SDS011;8926;49.720;6.576;2022-08-03T09:23:45;1.10;;;1.00;;
17614;SDS011;8926;49.720;6.576;2022-08-03T09:26:12;0.67;;;0.67;;
17614;SDS011;8926;49.720;6.576;2022-08-03T09:28:44;0.90;;;0.90;;
17614;SDS011;8926;49.720;6.576;2022-08-03T09:31:09;0.90;;;0.90;;
17614;SDS011;8926;49.720;6.576;2022-08-03T09:33:45;0.90;;;0.90;;
17614;SDS011;8926;49.720;6.576;2022-08-03T09:36:32;1.20;;;1.10;;
17614;SDS011;8926;49.720;6.576;2022-08-03T09:39:02;1.10;;;0.80;;
17614;SDS011;8926;49.720;6.576;2022-08-03T09:41:30;0.70;;;0.70;;
17614;SDS011;8926;49.720;6.576;2022-08-03T09:43:56;0.60;;;0.60;;
17614;SDS011;8926;49.720;6.576;2022-08-03T09:46:21;0.97;;;0.80;;
17614;SDS011;8926;49.720;6.576;2022-08-03T09:48:47;0.90;;;0.90;;
17614;SDS011;8926;49.720;6.576;2022-08-03T09:51:12;1.07;;;1.00;;
17614;SDS011;8926;49.720;6.576;2022-08-03T09:53:42;0.77;;;0.77;;
17614;SDS011;8926;49.720;6.576;2022-08-03T09:56:09;3.00;;;1.00;;
17614;SDS011;8926;49.720;6.576;2022-08-03T09:58:38;0.97;;;0.97;;
17614;SDS011;8926;49.720;6.576;2022-08-03T10:01:10;0.80;;;0.80;;
17614;SDS011;8926;49.720;6.576;2022-08-03T10:03:37;0.60;;;0.60;;
17614;SDS011;8926;49.720;6.576;2022-08-03T10:06:18;0.83;;;0.83;;
17614;SDS011;8926;49.720;6.576;2022-08-03T10:08:46;0.63;;;0.63;;
17614;SDS011;8926;49.720;6.576;2022-08-03T10:11:28;0.80;;;0.80;;
17614;SDS011;8926;49.720;6.576;2022-08-03T10:13:54;0.70;;;0.70;;
17614;SDS011;8926;49.720;6.576;2022-08-03T10:16:20;0.70;;;0.70;;
17614;SDS011;8926;49.720;6.576;2022-08-03T10:18:45;0.93;;;0.93;;
17614;SDS011;8926;49.720;6.576;2022-08-03T10:21:11;0.60;;;0.60;;
17614;SDS011;8926;49.720;6.576;2022-08-03T10:23:42;0.60;;;0.60;;
17614;SDS011;8926;49.720;6.576;2022-08-03T10:26:07;0.50;;;0.50;;
17614;SDS011;8926;49.720;6.576;2022-08-03T10:28:39;0.50;;;0.50;;
17614;SDS011;8926;49.720;6.576;2022-08-03T10:31:06;0.70;;;0.70;;
17614;SDS011;8926;49.720;6.576;2022-08-03T10:33:33;0.60;;;0.60;;
17614;SDS011;8926;49.720;6.576;2022-08-03T10:36:01;0.50;;;0.50;;
17614;SDS011;8926;49.720;6.576;2022-08-03T10:38:43;0.60;;;0.60;;
17614;SDS011;8926;49.720;6.576;2022-08-03T10:41:11;0.40;;;0.40;;
17614;SDS011;8926;49.720;6.576;2022-08-03T10:43:55;1.70;;;0.50;;
17614;SDS011;8926;49.720;6.576;2022-08-03T10:46:23;0.80;;;0.80;;
17614;SDS011;8926;49.720;6.576;2022-08-03T10:48:51;0.50;;;0.50;;
17614;SDS011;8926;49.720;6.576;2022-08-03T10:51:18;0.50;;;0.50;;
17614;SDS011;8926;49.720;6.576;2022-08-03T10:53:44;0.70;;;0.70;;
17614;SDS011;8926;49.720;6.576;2022-08-03T10:59:16;0.60;;;0.60;;
17614;SDS011;8926;49.720;6.576;2022-08-03T11:01:49;0.30;;;0.30;;
17614;SDS011;8926;49.720;6.576;2022-08-03T11:04:15;0.60;;;0.60;;
17614;SDS011;8926;49.720;6.576;2022-08-03T11:06:42;0.90;;;0.90;;
17614;SDS011;8926;49.720;6.576;2022-08-03T11:11:33;1.13;;;0.70;;
17614;SDS011;8926;49.720;6.576;2022-08-03T11:16:33;0.50;;;0.50;;
17614;SDS011;8926;49.720;6.576;2022-08-03T11:19:07;0.80;;;0.80;;
17614;SDS011;8926;49.720;6.576;2022-08-03T11:21:56;0.87;;;0.87;;
17614;SDS011;8926;49.720;6.576;2022-08-03T11:29:52;0.73;;;0.73;;
17614;SDS011;8926;49.720;6.576;2022-08-03T11:35:31;0.63;;;0.63;;
17614;SDS011;8926;49.720;6.576;2022-08-03T11:45:59;0.87;;;0.50;;
17614;SDS011;8926;49.720;6.576;2022-08-03T11:50:58;0.40;;;0.40;;
17614;SDS011;8926;49.720;6.576;2022-08-03T11:53:24;0.50;;;0.50;;
17614;SDS011;8926;49.720;6.576;2022-08-03T11:55:50;0.50;;;0.50;;
17614;SDS011;8926;49.720;6.576;2022-08-03T11:58:20;0.40;;;0.40;;
17614;SDS011;8926;49.720;6.576;2022-08-03T12:00:47;0.60;;;0.60;;
17614;SDS011;8926;49.720;6.576;2022-08-03T12:03:17;0.40;;;0.40;;
17614;SDS011;8926;49.720;6.576;2022-08-03T12:05:51;0.30;;;0.30;;
17614;SDS011;8926;49.720;6.576;2022-08-03T12:08:38;0.50;;;0.50;;
17614;SDS011;8926;49.720;6.576;2022-08-03T12:11:04;0.40;;;0.40;;
17614;SDS011;8926;49.720;6.576;2022-08-03T12:16:09;0.53;;;0.47;;
17614;SDS011;8926;49.720;6.576;2022-08-03T12:18:40;0.97;;;0.97;;
17614;SDS011;8926;49.720;6.576;2022-08-03T12:21:06;2.00;;;0.70;;
17614;SDS011;8926;49.720;6.576;2022-08-03T12:23:33;0.60;;;0.60;;
17614;SDS011;8926;49.720;6.576;2022-08-03T12:26:00;0.77;;;0.77;;
17614;SDS011;8926;49.720;6.576;2022-08-03T12:28:33;0.47;;;0.47;;
17614;SDS011;8926;49.720;6.576;2022-08-03T12:31:00;0.40;;;0.40;;
17614;SDS011;8926;49.720;6.576;2022-08-03T12:33:28;0.60;;;0.60;;
17614;SDS011;8926;49.720;6.576;2022-08-03T12:36:06;0.97;;;0.40;;
17614;SDS011;8926;49.720;6.576;2022-08-03T12:38:33;0.50;;;0.50;;
17614;SDS011;8926;49.720;6.576;2022-08-03T12:41:02;0.50;;;0.50;;
17614;SDS011;8926;49.720;6.576;2022-08-03T12:43:32;0.40;;;0.40;;
17614;SDS011;8926;49.720;6.576;2022-08-03T12:46:11;0.50;;;0.50;;
17614;SDS011;8926;49.720;6.576;2022-08-03T12:51:22;0.70;;;0.70;;
17614;SDS011;8926;49.720;6.576;2022-08-03T12:53:51;0.43;;;0.43;;
17614;SDS011;8926;49.720;6.576;2022-08-03T12:56:18;0.50;;;0.43;;
17614;SDS011;8926;49.720;6.576;2022-08-03T12:58:44;0.50;;;0.50;;
17614;SDS011;8926;49.720;6.576;2022-08-03T13:01:11;0.90;;;0.67;;
17614;SDS011;8926;49.720;6.576;2022-08-03T13:03:38;0.60;;;0.60;;
17614;SDS011;8926;49.720;6.576;2022-08-03T13:06:09;0.50;;;0.50;;
17614;SDS011;8926;49.720;6.576;2022-08-03T13:08:36;0.50;;;0.50;;
17614;SDS011;8926;49.720;6.576;2022-08-03T13:11:16;0.40;;;0.40;;
17614;SDS011;8926;49.720;6.576;2022-08-03T13:13:46;0.40;;;0.40;;
17614;SDS011;8926;49.720;6.576;2022-08-03T13:16:12;0.30;;;0.30;;
17614;SDS011;8926;49.720;6.576;2022-08-03T13:18:37;0.50;;;0.50;;
17614;SDS011;8926;49.720;6.576;2022-08-03T13:21:02;0.40;;;0.40;;
17614;SDS011;8926;49.720;6.576;2022-08-03T13:23:28;0.30;;;0.30;;
17614;SDS011;8926;49.720;6.576;2022-08-03T13:25:53;2.30;;;0.67;;
17614;SDS011;8926;49.720;6.576;2022-08-03T13:28:18;0.33;;;0.33;;
17614;SDS011;8926;49.720;6.576;2022-08-03T13:30:43;0.50;;;0.50;;
17614;SDS011;8926;49.720;6.576;2022-08-03T13:33:09;1.13;;;0.50;;
17614;SDS011;8926;49.720;6.576;2022-08-03T13:35:34;0.60;;;0.60;;
17614;SDS011;8926;49.720;6.576;2022-08-03T13:37:59;0.40;;;0.40;;
17614;SDS011;8926;49.720;6.576;2022-08-03T13:40:25;0.80;;;0.80;;
17614;SDS011;8926;49.720;6.576;2022-08-03T13:42:50;0.60;;;0.60;;
17614;SDS011;8926;49.720;6.576;2022-08-03T13:45:15;0.50;;;0.50;;
17614;SDS011;8926;49.720;6.576;2022-08-03T13:47:40;0.60;;;0.60;;
17614;SDS011;8926;49.720;6.576;2022-08-03T13:50:06;0.30;;;0.30;;
17614;SDS011;8926;49.720;6.576;2022-08-03T13:52:32;0.40;;;0.40;;
17614;SDS011;8926;49.720;6.576;2022-08-03T13:54:59;0.67;;;0.40;;
17614;SDS011;8926;49.720;6.576;2022-08-03T13:57:25;0.30;;;0.30;;
17614;SDS011;8926;49.720;6.576;2022-08-03T13:59:51;0.80;;;0.60;;
17614;SDS011;8926;49.720;6.576;2022-08-03T14:02:16;0.30;;;0.30;;
17614;SDS011;8926;49.720;6.576;2022-08-03T14:04:41;0.33;;;0.33;;
17614;SDS011;8926;49.720;6.576;2022-08-03T14:07:07;0.40;;;0.40;;
17614;SDS011;8926;49.720;6.576;2022-08-03T14:09:32;0.33;;;0.33;;
17614;SDS011;8926;49.720;6.576;2022-08-03T14:11:58;0.37;;;0.37;;
17614;SDS011;8926;49.720;6.576;2022-08-03T14:14:24;0.60;;;0.60;;
17614;SDS011;8926;49.720;6.576;2022-08-03T14:16:49;0.30;;;0.30;;
17614;SDS011;8926;49.720;6.576;2022-08-03T14:19:14;0.40;;;0.40;;
17614;SDS011;8926;49.720;6.576;2022-08-03T14:21:40;0.30;;;0.30;;
17614;SDS011;8926;49.720;6.576;2022-08-03T14:24:05;0.37;;;0.37;;
17614;SDS011;8926;49.720;6.576;2022-08-03T14:26:31;0.57;;;0.57;;
17614;SDS011;8926;49.720;6.576;2022-08-03T14:28:56;0.50;;;0.50;;
17614;SDS011;8926;49.720;6.576;2022-08-03T14:31:21;0.53;;;0.53;;
17614;SDS011;8926;49.720;6.576;2022-08-03T14:33:47;0.50;;;0.50;;
17614;SDS011;8926;49.720;6.576;2022-08-03T14:36:12;0.70;;;0.67;;
17614;SDS011;8926;49.720;6.576;2022-08-03T14:38:38;0.37;;;0.30;;
17614;SDS011;8926;49.720;6.576;2022-08-03T14:41:03;0.40;;;0.40;;
17614;SDS011;8926;49.720;6.576;2022-08-03T14:43:28;0.57;;;0.50;;
17614;SDS011;8926;49.720;6.576;2022-08-03T14:45:53;0.73;;;0.73;;
17614;SDS011;8926;49.720;6.576;2022-08-03T14:48:19;0.50;;;0.50;;
17614;SDS011;8926;49.720;6.576;2022-08-03T14:50:45;0.20;;;0.20;;
17614;SDS011;8926;49.720;6.576;2022-08-03T14:53:11;0.20;;;0.20;;
17614;SDS011;8926;49.720;6.576;2022-08-03T14:55:36;0.30;;;0.30;;
17614;SDS011;8926;49.720;6.576;2022-08-03T14:58:01;0.30;;;0.30;;
17614;SDS011;8926;49.720;6.576;2022-08-03T15:00:30;0.40;;;0.40;;
17614;SDS011;8926;49.720;6.576;2022-08-03T15:02:56;0.40;;;0.40;;
17614;SDS011;8926;49.720;6.576;2022-08-03T15:05:21;0.83;;;0.30;;
17614;SDS011;8926;49.720;6.576;2022-08-03T15:07:46;0.20;;;0.20;;
17614;SDS011;8926;49.720;6.576;2022-08-03T15:10:11;0.33;;;0.33;;
17614;SDS011;8926;49.720;6.576;2022-08-03T15:12:37;0.30;;;0.30;;
17614;SDS011;8926;49.720;6.576;2022-08-03T15:15:02;0.17;;;0.17;;
17614;SDS011;8926;49.720;6.576;2022-08-03T15:17:27;0.27;;;0.27;;
17614;SDS011;8926;49.720;6.576;2022-08-03T15:19:53;0.20;;;0.20;;
17614;SDS011;8926;49.720;6.576;2022-08-03T15:22:18;0.50;;;0.50;;
17614;SDS011;8926;49.720;6.576;2022-08-03T15:24:43;0.40;;;0.40;;
17614;SDS011;8926;49.720;6.576;2022-08-03T15:27:08;0.40;;;0.40;;
17614;SDS011;8926;49.720;6.576;2022-08-03T15:29:34;0.27;;;0.27;;
17614;SDS011;8926;49.720;6.576;2022-08-03T15:31:59;0.20;;;0.20;;
17614;SDS011;8926;49.720;6.576;2022-08-03T15:34:24;0.20;;;0.20;;
17614;SDS011;8926;49.720;6.576;2022-08-03T15:36:49;0.10;;;0.10;;
17614;SDS011;8926;49.720;6.576;2022-08-03T15:39:15;0.63;;;0.63;;